Tiempo atmosférico en la estación meteorológica de Tornavacas, Cáceres (991 m.)



Fecha
DESCASC
Temp. máxima en grados centígrados (hora)
DESCASC
Temp. mínima en grados centígrados (hora)
DESCASC
Temp. media en grados centígrados
DESCASC
Racha de viento máxima en m/sg (hora)
DESCASC
Velocidad máxima media en intervalos de 10 minutos(hora)
DESCASC
Precipitaciones diarias en mm
DESCASC
Precipitaciones de 00:00 a 06:00 en mm
DESCASC
Precipitaciones de 06:00 a 12:00 en mm
DESCASC
Precipitaciones de 12:00 a 18:00 en mm
DESCASC
Precipitaciones de 18:00 a 24:00 en mm
DESCASC
18-04-2019 11.5 (14:20) 5.9 (09:00) 8.7 10.83 (00:40) 5.56 (00:40) 8.2 7.8 0 0.2 0.2
17-04-2019 16.4 (00:00) 7.5 (23:40) 11.9 16.67 (15:20) 7.78 (15:30) 12 0 0 0 12
16-04-2019 18.3 (18:40) 5.4 (00:00) 11.8 12.22 (23:30) 6.39 (14:20) 0 0 0 0 0
15-04-2019 16.5 (13:40) 8.6 (00:00) 12.6 13.89 (12:40) 9.72 (17:00) 1 0 0 0.6 0.4
14-04-2019 20.4 (14:40) 9.4 (00:00) 14.9 11.39 (08:20) 8.33 (07:30) 0 0 0 0 0
13-04-2019 18.4 (17:00) 6.2 (00:00) 12.3 10.83 (09:30) 8.06 (06:10) 0 0 0 0 0
12-04-2019 15.2 (17:40) 4.5 (00:00) 9.8 9.44 (05:20) 5.83 (16:50) 0 0 0 0 0
11-04-2019 12.7 (17:00) 3.4 (00:00) 8 10.56 (01:20) 6.94 (00:20) 0 0 0 0 0
10-04-2019 13 (18:00) 2.7 (00:00) 7.9 14.72 (18:50) 8.61 (22:10) 10.2 0 0 0 10.2
09-04-2019 10.4 (16:50) 3.5 (00:00) 6.9 15.28 (18:10) 7.5 (23:20) 8.2 0 6.2 1.6 0.4
08-04-2019 11.2 (16:00) 5.1 (00:00) 8.1 14.72 (19:20) 8.61 (18:30) 19.8 16.6 1.4 0 1.8
07-04-2019 7.6 (14:30) 2 (00:00) 4.8 10.83 (06:20) 5.56 (17:10) 10.2 3.2 0 1.2 5.8
06-04-2019 5.7 (16:20) 0.8 (00:00) 3.2 12.22 (18:20) 6.94 (12:00) 8.2 0.2 4.2 1 2.8
05-04-2019 6.1 (17:20) 0.1 (00:00) 3.1 11.39 (21:50) 6.94 (21:40) 22.8 4.2 11.4 1.4 5.8
04-04-2019 11.8 (16:10) -0.8 (-00:0) 5.5 12.22 (01:10) 7.78 (18:10) 1.8 0 0 0 1.8
03-04-2019 12.6 (16:50) 4.3 (00:00) 8.5 14.44 (15:50) 8.06 (15:50) 0 0 0 0 0
02-04-2019 16.6 (17:30) 6.9 (00:00) 11.8 10 (17:30) 6.67 (17:20) 0 0 0 0 0
01-04-2019 14.1 (17:00) 5.5 (00:00) 9.8 8.89 (13:00) 5.83 (13:00) 2 0 0 0 2
31-03-2019 14.5 (17:30) 6.9 (00:00) 10.7 11.94 (09:20) 8.33 (08:50) 0 0 0 0 0
30-03-2019 18.4 (16:00) 5 (00:00) 11.7 12.22 (09:20) 8.61 (07:20) 0 0 0 0 0
29-03-2019 17.4 (14:50) 7.1 (00:00) 12.2 10.28 (14:30) 6.11 (12:20) 0 0 0 0 0
28-03-2019 18.3 (17:00) 6.3 (00:00) 12.3 10 (08:20) 7.78 (08:20) 0 0 0 0 0
27-03-2019 18.1 (17:20) 4.3 (00:00) 11.2 10 (01:50) 7.78 (01:40) 0 0 0 0 0
26-03-2019 21.1 (17:10) 5.5 (00:00) 13.3 13.89 (09:20) 8.89 (01:50) 0 0 0 0 0
25-03-2019 18.4 (14:50) 8.6 (00:00) 13.5 13.06 (17:40) 7.78 (22:50) 0 0 0 0 0
24-03-2019 18.6 (16:30) 8.5 (00:00) 13.6 12.5 (12:40) 7.22 (04:30) 0 0 0 0 0
23-03-2019 18.1 (15:30) 6.7 (00:00) 12.4 8.89 (17:50) 5 (00:40) 0 0 0 0 0
22-03-2019 16.6 (17:10) 4 (00:00) 10.3 10 (15:20) 6.67 (14:50) 0 0 0 0 0
21-03-2019 14.7 (15:30) 3.9 (00:00) 9.3 11.11 (06:20) 8.33 (06:30) 0 0 0 0 0

Gráficas

Temp. máximas Temp. mínimas Temp. medias Precipitaciones Rachas de viento máximas Velocidades máximas media en intervalos de 10 minutos

Datos horarios

Fecha y hora oficial Temperatura (ºC) Velocidad del viento (km/h) Dirección del viento Racha (km/h) Dirección de racha Precipitación (mm) Presión (hPa) Tendencia (hPa) Humedad (%)
2019-04-19 23:00:00 8.9 23 Este 37 Este 0.2 -- -- 87
2019-04-19 22:00:00 9.5 13 Este 31 Nordeste 0.2 -- -- 82
2019-04-19 21:00:00 9.8 8 Este 25 Nordeste 0.2 -- -- 80
2019-04-19 20:00:00 10.7 12 Nordeste 28 Nordeste 0 -- -- 73
2019-04-19 19:00:00 11.4 16 Nordeste 30 Nordeste 0 -- -- 66
2019-04-19 18:00:00 12.2 17 Nordeste 34 Nordeste 0 -- -- 60
2019-04-19 17:00:00 12 16 Nordeste 31 Nordeste 0 -- -- 63
2019-04-19 16:00:00 11.8 20 Nordeste 31 Nordeste 0 -- -- 65
2019-04-19 15:00:00 10.8 9 Norte 27 Norte 0.6 -- -- 77
2019-04-19 14:00:00 10.7 3 Sur 16 Sudoeste 0 -- -- 71
2019-04-19 13:00:00 10.5 8 Sudoeste 14 Sudoeste 0 -- -- 74
2019-04-19 12:00:00 9.6 5 Sudoeste 14 Sudoeste 0.4 -- -- 79
2019-04-19 11:00:00 9.7 5 Norte 13 Este 0 -- -- 75
2019-04-19 10:00:00 7.8 13 Este 20 Este 0 -- -- 77
2019-04-19 09:00:00 6.4 10 Este 15 Este 0 -- -- 85
2019-04-19 08:00:00 6.6 11 Este 21 Este 0 -- -- 82
2019-04-19 07:00:00 6.6 3 Sudeste 10 Este 0 -- -- 87
2019-04-19 06:00:00 6.4 0 Calma 6 Norte 0 -- -- 90
2019-04-19 05:00:00 6.3 0 Calma 5 Norte 0 -- -- 91
2019-04-19 04:00:00 6.2 2 Sudoeste 12 Este 0 -- -- 90
2019-04-19 03:00:00 6.3 2 Oeste 19 Nordeste 0 -- -- 90
2019-04-19 02:00:00 7.6 14 Este 22 Este 0 -- -- 76
2019-04-19 01:00:00 7.8 11 Este 24 Nordeste 0 -- -- 83
2019-04-19 00:00:00 7.8 16 Este 25 Nordeste 0 -- -- 83
2019-04-18 23:00:00 6.3 5 Este 9 Sudeste 0 -- -- 91
2019-04-18 22:00:00 7 5 Este 8 Este 0 -- -- 89
2019-04-18 21:00:00 7.8 3 Este 4 Sudeste 0 -- -- 90
2019-04-18 20:00:00 8.3 0 Calma 4 Oeste 0 -- -- 83
2019-04-18 19:00:00 8.1 0 Calma 9 Sudoeste 0.2 -- -- 86
2019-04-18 18:00:00 8.3 4 Sudoeste 13 Sudoeste 0.2 -- -- 87
2019-04-18 17:00:00 9.4 5 Sudoeste 13 Sudoeste 0 -- -- 80
2019-04-18 16:00:00 9.5 5 Sudoeste 21 Oeste 0 -- -- 80
2019-04-18 15:00:00 10.6 6 Noroeste 16 Norte 0 -- -- 78
2019-04-18 14:00:00 11.1 9 Sudoeste 15 Sudoeste 0 -- -- 76
2019-04-18 13:00:00 9.6 8 Sudoeste 20 Sudoeste 0 -- -- 85
2019-04-18 12:00:00 9.9 10 Sudoeste 13 Sudoeste 0 -- -- 81
2019-04-18 11:00:00 8.8 4 Oeste 8 Sudoeste 0 -- -- 85
2019-04-18 10:00:00 7.9 3 Sur 18 Este 0 -- -- 90
2019-04-18 09:00:00 5.9 8 Nordeste 16 Nordeste 0 -- -- 96
2019-04-18 08:00:00 6.3 3 Sudoeste 12 Sudoeste 0 -- -- 97
2019-04-18 07:00:00 6.5 6 Sudoeste 9 Sudoeste 0 -- -- 98
2019-04-18 06:00:00 6.6 3 Sur 18 Sudoeste 0.6 -- -- 98
2019-04-18 05:00:00 6.8 13 Sudoeste 19 Sudoeste 0.8 -- -- 97
2019-04-18 04:00:00 6.8 14 Sudoeste 21 Sudoeste 1.6 -- -- 97
2019-04-18 03:00:00 6.9 10 Sudoeste 23 Oeste 1 -- -- 96
2019-04-18 02:00:00 7.1 13 Sudoeste 30 Oeste 1.4 -- -- 96
2019-04-18 01:00:00 7.4 17 Oeste 39 Sudoeste 2.4 -- -- 95
2019-04-18 00:00:00 7.5 12 Sudoeste 36 Oeste 2.2 -- -- 94
2019-04-17 23:00:00 7.6 12 Sudoeste 28 Sudoeste 1.4 -- -- 94
2019-04-17 22:00:00 7.7 11 Sudoeste 39 Sudoeste 5.2 -- -- 95
2019-04-17 21:00:00 8.2 21 Sudoeste 51 Oeste 3.2 -- -- 91
2019-04-17 20:00:00 11.4 22 Sudoeste 40 Oeste 0 -- -- 84
2019-04-17 19:00:00 14.4 14 Sudoeste 55 Oeste 0 -- -- 55
2019-04-17 18:00:00 15 21 Oeste 50 Sudoeste 0 -- -- 53
2019-04-17 17:00:00 15.1 23 Sudoeste 48 Oeste 0 -- -- 52
2019-04-17 16:00:00 15.3 26 Sudoeste 60 Sudoeste 0 -- -- 49
2019-04-17 15:00:00 15 22 Sudoeste 53 Oeste 0 -- -- 48
2019-04-17 14:00:00 15.3 25 Oeste 47 Sudoeste 0 -- -- 46
2019-04-17 13:00:00 15.3 19 Sudoeste 39 Oeste 0 -- -- 45
2019-04-17 12:00:00 14.7 20 Sudoeste 39 Oeste 0 -- -- 45
2019-04-17 11:00:00 15.1 11 Sudoeste 36 Sudoeste 0 -- -- 47
2019-04-17 10:00:00 13.4 18 Sudoeste 32 Sur 0 -- -- 53
2019-04-17 09:00:00 12.8 19 Sur 28 Sur 0 -- -- 57
2019-04-17 08:00:00 12.9 13 Sudoeste 29 Oeste 0 -- -- 56
2019-04-17 07:00:00 13 10 Sudoeste 29 Sur 0 -- -- 57
2019-04-17 06:00:00 12.9 8 Sur 32 Oeste 0 -- -- 54
2019-04-17 05:00:00 13.1 14 Oeste 39 Oeste 0 -- -- 53
2019-04-17 04:00:00 13.5 10 Oeste 39 Sur 0 -- -- 50
2019-04-17 03:00:00 13.4 10 Sudoeste 32 Oeste 0 -- -- 49
2019-04-17 02:00:00 14.1 12 Sudoeste 28 Sudoeste 0 -- -- 45
2019-04-17 01:00:00 15.2 10 Sudoeste 33 Sur 0 -- -- 42
2019-04-17 00:00:00 16.4 18 Sudoeste 44 Oeste 0 -- -- 37
2019-04-16 23:00:00 14.9 12 Sudoeste 42 Sudoeste 0 -- -- 42
2019-04-16 22:00:00 13.6 8 Nordeste 13 Sudeste 0 -- -- 45
2019-04-16 21:00:00 14.4 4 Nordeste 30 Oeste 0 -- -- 47
2019-04-16 20:00:00 16.1 15 Oeste 24 Sudoeste 0 -- -- 40
2019-04-16 19:00:00 17.8 16 Sudoeste 28 Oeste 0 -- -- 34
2019-04-16 18:00:00 18 13 Sudoeste 35 Sudoeste 0 -- -- 32
2019-04-16 17:00:00 17.9 16 Oeste 27 Oeste 0 -- -- 35
2019-04-16 16:00:00 16.6 14 Oeste 31 Oeste 0 -- -- 40
2019-04-16 15:00:00 16.4 22 Oeste 35 Oeste 0 -- -- 38
2019-04-16 14:00:00 15.1 18 Oeste 34 Oeste 0 -- -- 52
2019-04-16 13:00:00 14.4 16 Oeste 32 Oeste 0 -- -- 57
2019-04-16 12:00:00 12.9 11 Sudoeste 18 Oeste 0 -- -- 54
2019-04-16 11:00:00 11.7 8 Sudoeste 20 Nordeste 0 -- -- 57
2019-04-16 10:00:00 9 13 Nordeste 30 Nordeste 0 -- -- 70
2019-04-16 09:00:00 6.5 19 Nordeste 32 Nordeste 0 -- -- 79
2019-04-16 08:00:00 5.5 22 Nordeste 33 Nordeste 0 -- -- 77
2019-04-16 07:00:00 6.1 13 Nordeste 20 Nordeste 0 -- -- 77
2019-04-16 06:00:00 5.8 9 Este 23 Este 0 -- -- 74
2019-04-16 05:00:00 7.3 16 Este 27 Este 0 -- -- 80
2019-04-16 04:00:00 7.5 17 Este 32 Este 0 -- -- 79
2019-04-16 03:00:00 7.6 19 Este 27 Este 0 -- -- 79
2019-04-16 02:00:00 7.5 19 Nordeste 31 Nordeste 0 -- -- 81
2019-04-16 01:00:00 8.4 18 Este 27 Este 0 -- -- 77
2019-04-16 00:00:00 8.7 15 Nordeste 25 Este 0 -- -- 79
2019-04-15 23:00:00 9.1 10 Nordeste 20 Nordeste 0 -- -- 79
2019-04-15 22:00:00 9.3 5 Este 14 Sudeste 0.2 -- -- 83
2019-04-15 21:00:00 10 6 Este 12 Sudeste 0 -- -- 82
2019-04-15 20:00:00 10.8 10 Sudoeste 18 Sudoeste 0 -- -- 76
2019-04-15 19:00:00 11.3 12 Sudoeste 24 Sudoeste 0.2 -- -- 77
2019-04-15 18:00:00 9.4 15 Sudoeste 45 Sudoeste 0.6 -- -- 87
2019-04-15 17:00:00 13.1 35 Sudoeste 48 Sudoeste 0 -- -- 67
2019-04-15 16:00:00 15.6 27 Sudoeste 43 Sudoeste 0 -- -- 54
2019-04-15 15:00:00 15 29 Sudoeste 41 Oeste 0 -- -- 64
2019-04-15 14:00:00 15.5 28 Sudoeste 43 Sudoeste 0 -- -- 73
2019-04-15 13:00:00 15.1 25 Sudoeste 50 Sudoeste 0 -- -- 74
2019-04-15 12:00:00 15.7 29 Oeste 48 Oeste 0 -- -- 69
2019-04-15 11:00:00 15.4 21 Sudoeste 43 Sudoeste 0 -- -- 69
2019-04-15 10:00:00 15.1 17 Oeste 41 Sudoeste 0 -- -- 69
2019-04-15 09:00:00 14.2 11 Sudoeste 17 Sudoeste 0 -- -- 74
2019-04-15 08:00:00 13.9 7 Sudoeste 21 Sudoeste 0 -- -- 74
2019-04-15 07:00:00 13 0 Calma 15 Este 0 -- -- 80
2019-04-15 06:00:00 13.1 4 Sur 8 Sur 0 -- -- 80
2019-04-15 05:00:00 12.9 3 Nordeste 8 Sur 0 -- -- 81
2019-04-15 04:00:00 12.8 4 Sudeste 9 Este 0 -- -- 80
2019-04-15 03:00:00 12.8 0 Calma 12 Sur 0 -- -- 80
2019-04-15 02:00:00 12.9 0 Calma 10 Sudeste 0 -- -- 77
2019-04-15 01:00:00 13 6 Sudeste 10 Este 0 -- -- 76
2019-04-15 00:00:00 12.9 8 Sudeste 12 Sudeste 0 -- -- 76
2019-04-14 23:00:00 13.7 9 Sudeste 12 Este 0 -- -- 75
2019-04-14 22:00:00 14.3 5 Sudeste 9 Sudeste 0 -- -- 72
2019-04-14 21:00:00 15.4 3 Sudeste 12 Sudoeste 0 -- -- 68
2019-04-14 20:00:00 17.4 10 Sudoeste 35 Sudoeste 0 -- -- 61
2019-04-14 19:00:00 18.8 20 Sudoeste 31 Sudoeste 0 -- -- 58
2019-04-14 18:00:00 19.2 18 Sudoeste 27 Sudoeste 0 -- -- 57
2019-04-14 17:00:00 20.2 18 Sudoeste 30 Sudoeste 0 -- -- 56
2019-04-14 16:00:00 19.5 22 Sudoeste 39 Sudoeste 0 -- -- 60
2019-04-14 15:00:00 19.7 17 Sudoeste 29 Sudoeste 0 -- -- 56
2019-04-14 14:00:00 18.8 13 Sudoeste 18 Sudoeste 0 -- -- 57
2019-04-14 13:00:00 16.6 12 Sudoeste 21 Sudoeste 0 -- -- 61
2019-04-14 12:00:00 14.5 17 Sudoeste 27 Sudoeste 0 -- -- 64
2019-04-14 11:00:00 13.8 19 Nordeste 34 Este 0 -- -- 61
2019-04-14 10:00:00 11.6 21 Este 38 Este 0 -- -- 69
2019-04-14 09:00:00 10.4 26 Este 41 Este 0 -- -- 75
2019-04-14 08:00:00 10 26 Este 40 Este 0 -- -- 71
2019-04-14 07:00:00 10.1 26 Nordeste 37 Este 0 -- -- 63
2019-04-14 06:00:00 10.5 25 Nordeste 37 Nordeste 0 -- -- 61
2019-04-14 05:00:00 11.7 21 Este 30 Este 0 -- -- 56
2019-04-14 04:00:00 12.1 20 Este 31 Este 0 -- -- 55
2019-04-14 03:00:00 11 13 Nordeste 22 Este 0 -- -- 60
2019-04-14 02:00:00 9.6 8 Este 12 Sudeste 0 -- -- 66
2019-04-14 01:00:00 10.4 5 Este 11 Sudeste 0 -- -- 62
2019-04-14 00:00:00 10.4 8 Este 12 Este 0 -- -- 64
2019-04-13 23:00:00 11.8 5 Sudeste 10 Sudeste 0 -- -- 58
2019-04-13 22:00:00 13.7 2 Sudoeste 19 Sur 0 -- -- 55
2019-04-13 21:00:00 14.8 6 Sur 19 Sudoeste 0 -- -- 49
2019-04-13 20:00:00 16.8 17 Sudoeste 31 Sudoeste 0 -- -- 42
2019-04-13 19:00:00 17.5 21 Sudoeste 28 Sudoeste 0 -- -- 39
2019-04-13 18:00:00 18.3 18 Sudoeste 31 Sudoeste 0 -- -- 38
2019-04-13 17:00:00 18.4 18 Sudoeste 29 Sudoeste 0 -- -- 38
2019-04-13 16:00:00 17.6 20 Sudoeste 31 Sudoeste 0 -- -- 41
2019-04-13 15:00:00 17 18 Sudoeste 26 Oeste 0 -- -- 43
2019-04-13 14:00:00 16.7 15 Sudoeste 30 Sudoeste 0 -- -- 36
2019-04-13 13:00:00 15.7 18 Sudoeste 24 Sudoeste 0 -- -- 35
2019-04-13 12:00:00 14.6 16 Nordeste 27 Nordeste 0 -- -- 39
2019-04-13 11:00:00 13.1 18 Nordeste 27 Este 0 -- -- 41
2019-04-13 10:00:00 10.4 17 Este 39 Este 0 -- -- 44
2019-04-13 09:00:00 7.1 24 Nordeste 34 Nordeste 0 -- -- 56
2019-04-13 08:00:00 7.5 21 Nordeste 33 Nordeste 0 -- -- 54
2019-04-13 07:00:00 7 19 Nordeste 38 Nordeste 0 -- -- 55
2019-04-13 06:00:00 6.5 29 Nordeste 37 Nordeste 0 -- -- 57
2019-04-13 05:00:00 7.4 23 Nordeste 31 Este 0 -- -- 51
2019-04-13 04:00:00 7.1 21 Nordeste 28 Nordeste 0 -- -- 54
2019-04-13 03:00:00 7.9 10 Este 33 Nordeste 0 -- -- 57
2019-04-13 02:00:00 6.9 23 Nordeste 35 Nordeste 0 -- -- 61
2019-04-13 01:00:00 9.3 14 Este 32 Este 0 -- -- 53
2019-04-13 00:00:00 8.2 19 Nordeste 26 Nordeste 0 -- -- 57
2019-04-12 23:00:00 9.3 12 Nordeste 22 Este 0 -- -- 53
2019-04-12 22:00:00 10.7 15 Este 22 Este 0 -- -- 48
2019-04-12 21:00:00 11 12 Nordeste 24 Nordeste 0 -- -- 48
2019-04-12 20:00:00 13.9 14 Nordeste 27 Nordeste 0 -- -- 40
2019-04-12 19:00:00 14.7 18 Nordeste 31 Nordeste 0 -- -- 41
2019-04-12 18:00:00 15.2 15 Nordeste 32 Este 0 -- -- 38
2019-04-12 17:00:00 15 17 Nordeste 32 Nordeste 0 -- -- 36
2019-04-12 16:00:00 14.5 19 Este 32 Este 0 -- -- 41
2019-04-12 15:00:00 14.3 15 Este 33 Este 0 -- -- 42
2019-04-12 14:00:00 13.3 15 Nordeste 30 Este 0 -- -- 45
2019-04-12 13:00:00 12 17 Este 33 Este 0 -- -- 46
2019-04-12 12:00:00 11.2 13 Este 29 Nordeste 0 -- -- 46
2019-04-12 11:00:00 10.4 14 Este 26 Nordeste 0 -- -- 47
2019-04-12 10:00:00 7.9 12 Este 21 Este 0 -- -- 53
2019-04-12 09:00:00 5.7 15 Este 25 Nordeste 0 -- -- 56
2019-04-12 08:00:00 6.2 13 Este 26 Nordeste 0 -- -- 52
2019-04-12 07:00:00 4.9 18 Nordeste 30 Nordeste 0 -- -- 58
2019-04-12 06:00:00 4.9 18 Nordeste 34 Nordeste 0 -- -- 58
2019-04-12 05:00:00 6.8 16 Este 21 Este 0 -- -- 51
2019-04-12 04:00:00 5.9 12 Este 21 Este 0 -- -- 57
2019-04-12 03:00:00 7 15 Este 23 Este 0 -- -- 54
2019-04-12 02:00:00 7.2 15 Este 21 Este 0 -- -- 54
2019-04-12 01:00:00 7 14 Este 19 Este 0 -- -- 55
2019-04-12 00:00:00 7.2 14 Este 22 Este 0 -- -- 57
2019-04-11 23:00:00 7.3 16 Este 21 Nordeste 0 -- -- 59
2019-04-11 22:00:00 7.2 13 Nordeste 24 Este 0 -- -- 62
2019-04-11 21:00:00 9.1 11 Este 19 Este 0 -- -- 54
2019-04-11 20:00:00 11.3 15 Nordeste 26 Nordeste 0 -- -- 44
2019-04-11 19:00:00 12.2 16 Nordeste 37 Este 0 -- -- 44
2019-04-11 18:00:00 12.3 14 Nordeste 35 Nordeste 0 -- -- 43
2019-04-11 17:00:00 12.7 10 Norte 35 Nordeste 0 -- -- 45
2019-04-11 16:00:00 12.6 15 Nordeste 32 Este 0 -- -- 47
2019-04-11 15:00:00 12.4 18 Nordeste 30 Nordeste 0 -- -- 50
2019-04-11 14:00:00 11.5 13 Nordeste 28 Nordeste 0 -- -- 45
2019-04-11 13:00:00 10.8 15 Nordeste 26 Nordeste 0 -- -- 44
2019-04-11 12:00:00 9.7 14 Nordeste 26 Este 0 -- -- 60
2019-04-11 11:00:00 8 14 Nordeste 28 Nordeste 0 -- -- 63
2019-04-11 10:00:00 5.5 17 Este 30 Nordeste 0 -- -- 75
2019-04-11 09:00:00 4.1 15 Este 31 Sudeste 0 -- -- 79
2019-04-11 08:00:00 4.5 18 Este 31 Este 0 -- -- 78
2019-04-11 07:00:00 4.9 16 Este 29 Este 0 -- -- 78
2019-04-11 06:00:00 5.3 17 Este 23 Este 0 -- -- 77
2019-04-11 05:00:00 5.1 14 Este 28 Este 0 -- -- 79
2019-04-11 04:00:00 5.1 16 Este 28 Este 0 -- -- 78
2019-04-11 03:00:00 4.6 18 Este 30 Este 0 -- -- 80
2019-04-11 02:00:00 4.3 21 Este 38 Este 0 -- -- 82
2019-04-11 01:00:00 3.7 23 Este 36 Nordeste 0 -- -- 85
2019-04-11 00:00:00 3.4 22 Nordeste 41 Nordeste 0 -- -- 87
2019-04-10 23:00:00 3.1 24 Este 44 Nordeste 0 -- -- 87
2019-04-10 22:00:00 5.1 14 Nordeste 42 Este 0 -- -- 78
2019-04-10 21:00:00 5.8 19 Este 39 Este 2.4 -- -- 75
2019-04-10 20:00:00 3.1 13 Nordeste 42 Este 5.2 -- -- 88
2019-04-10 19:00:00 5.1 23 Este 53 Nordeste 2.6 -- -- 81
2019-04-10 18:00:00 13 11 Sudoeste 43 Noroeste 0 -- -- 49
2019-04-10 17:00:00 12.1 13 Noroeste 43 Noroeste 0 -- -- 51
2019-04-10 16:00:00 10.4 13 Este 30 Oeste 0 -- -- 54
2019-04-10 15:00:00 9.4 11 Sudeste 27 Sudoeste 0 -- -- 54
2019-04-10 14:00:00 8.2 10 Sudeste 36 Este 0 -- -- 64
2019-04-10 13:00:00 7.1 7 Sudoeste 23 Oeste 0 -- -- 71
2019-04-10 12:00:00 6.8 10 Este 34 Nordeste 0 -- -- 65
2019-04-10 11:00:00 6.5 15 Este 27 Este 0 -- -- 68
2019-04-10 10:00:00 5.6 8 Nordeste 22 Nordeste 0 -- -- 73
2019-04-10 09:00:00 4.7 9 Nordeste 25 Este 0 -- -- 77
2019-04-10 08:00:00 4.7 12 Este 26 Este 0 -- -- 75
2019-04-10 07:00:00 5.1 7 Este 26 Este 0 -- -- 71
2019-04-10 06:00:00 4.9 10 Este 46 Nordeste 0 -- -- 73
2019-04-10 05:00:00 5.5 8 Este 29 Este 0 -- -- 70
2019-04-10 04:00:00 5.6 11 Este 39 Sur 0 -- -- 65
2019-04-10 03:00:00 5.6 17 Noroeste 36 Noroeste 0 -- -- 67
2019-04-10 02:00:00 5.2 10 Este 25 Sudeste 0 -- -- 77
2019-04-10 01:00:00 6.4 9 Sudeste 49 Oeste 0 -- -- 68
2019-04-10 00:00:00 6.4 13 Oeste 50 Oeste 0 -- -- 67
2019-04-09 23:00:00 6.2 20 Oeste 45 Oeste 0 -- -- 76
2019-04-09 22:00:00 7 20 Sudoeste 38 Sudoeste 0 -- -- 73
2019-04-09 21:00:00 6.8 19 Sudoeste 32 Sudoeste 0.2 -- -- 74
2019-04-09 20:00:00 7.4 20 Oeste 36 Sudoeste 0.2 -- -- 80
2019-04-09 19:00:00 8.6 23 Sudoeste 55 Sudoeste 0 -- -- 67
2019-04-09 18:00:00 9.1 26 Sudoeste 45 Sudoeste 0.8 -- -- 67
2019-04-09 17:00:00 10.2 24 Sudoeste 45 Oeste 0 -- -- 63
2019-04-09 16:00:00 8.2 24 Sudoeste 42 Sudoeste 0 -- -- 67
2019-04-09 15:00:00 8.2 23 Sudoeste 41 Sudoeste 0 -- -- 73
2019-04-09 14:00:00 7.6 19 Sudoeste 55 Sudoeste 0 -- -- 79
2019-04-09 13:00:00 5.3 17 Sudoeste 36 Oeste 0.8 -- -- 97
2019-04-09 12:00:00 4.2 18 Sudoeste 37 Sudoeste 2.4 -- -- 99
2019-04-09 11:00:00 4.6 22 Sudoeste 36 Oeste 1.2 -- -- 99
2019-04-09 10:00:00 4.3 16 Sudoeste 32 Sudoeste 0.4 -- -- 99
2019-04-09 09:00:00 3.7 19 Sudoeste 38 Sudoeste 0.4 -- -- 99
2019-04-09 08:00:00 3.7 22 Sudoeste 36 Sudoeste 1.2 -- -- 98
2019-04-09 07:00:00 4 17 Sudoeste 34 Sudoeste 0.6 -- -- 99
2019-04-09 06:00:00 4.2 19 Sudoeste 35 Sudoeste 0 -- -- 99
2019-04-09 05:00:00 4.2 18 Sudoeste 35 Sudoeste 0 -- -- 98
2019-04-09 04:00:00 4.2 17 Sudoeste 29 Sudoeste 0 -- -- 98
2019-04-09 03:00:00 4.5 17 Sudoeste 26 Sudoeste 0 -- -- 98
2019-04-09 02:00:00 4.8 16 Sudoeste 23 Sudoeste 0 -- -- 97
2019-04-09 01:00:00 5 13 Sudoeste 23 Sudoeste 0 -- -- 96
2019-04-09 00:00:00 5.1 8 Sudoeste 17 Sudoeste 0 -- -- 91
2019-04-08 23:00:00 5.3 4 Sudoeste 15 Sur 0 -- -- 89
2019-04-08 22:00:00 5.6 0 Calma 19 Sudeste 0.2 -- -- 91
2019-04-08 21:00:00 5.8 3 Norte 15 Sudoeste 0.2 -- -- 90
2019-04-08 20:00:00 6 10 Sudoeste 53 Sudoeste 1.4 -- -- 85
2019-04-08 19:00:00 8.7 16 Sudoeste 44 Sudoeste 0 -- -- 66
2019-04-08 18:00:00 9.8 23 Sudoeste 40 Sudoeste 0 -- -- 60
2019-04-08 17:00:00 10.2 23 Sudoeste 40 Oeste 0 -- -- 63
2019-04-08 16:00:00 11.2 20 Oeste 34 Oeste 0 -- -- 67
2019-04-08 15:00:00 10.4 19 Sudoeste 30 Oeste 0 -- -- 75
2019-04-08 14:00:00 8.8 18 Sudoeste 29 Sudoeste 0 -- -- 80
2019-04-08 13:00:00 9 16 Sudoeste 29 Sudoeste 0 -- -- 80
2019-04-08 12:00:00 8.3 18 Sudoeste 27 Sudoeste 0 -- -- 98
2019-04-08 11:00:00 6.9 15 Sudoeste 31 Sudoeste 0 -- -- 100
2019-04-08 10:00:00 6.5 22 Sudoeste 32 Sudoeste 0 -- -- 99
2019-04-08 09:00:00 6.4 18 Sudoeste 31 Sudoeste 0 -- -- 99
2019-04-08 08:00:00 7 20 Sudoeste 29 Sudoeste 0.2 -- -- 100
2019-04-08 07:00:00 7 17 Sudoeste 27 Oeste 1.2 -- -- 99
2019-04-08 06:00:00 6.9 15 Sudoeste 26 Sudoeste 5.8 -- -- 99
2019-04-08 05:00:00 6.8 13 Sudoeste 23 Sudoeste 5.2 -- -- 99
2019-04-08 04:00:00 6.8 16 Sudoeste 31 Sudoeste 1.8 -- -- 99
2019-04-08 03:00:00 6.8 17 Sudoeste 24 Sudoeste 2.2 -- -- 99
2019-04-08 02:00:00 6.7 13 Sudoeste 22 Sudoeste 1.2 -- -- 99
2019-04-08 01:00:00 6.7 19 Sudoeste 32 Sudoeste 0.4 -- -- 99
2019-04-08 00:00:00 6.5 18 Sudoeste 25 Sudoeste 0 -- -- 99
2019-04-07 23:00:00 6.1 15 Sudoeste 22 Sudoeste 1.4 -- -- 99
2019-04-07 22:00:00 5.8 13 Sudoeste 25 Sudoeste 1.2 -- -- 98
2019-04-07 21:00:00 5.6 11 Sudoeste 20 Sudoeste 1.2 -- -- 98
2019-04-07 20:00:00 5.6 12 Sudoeste 18 Sudoeste 0.6 -- -- 98
2019-04-07 19:00:00 5.3 7 Sudoeste 19 Sudoeste 1.4 -- -- 97
2019-04-07 18:00:00 5.2 13 Sudoeste 27 Sudoeste 1.2 -- -- 95
2019-04-07 17:00:00 5.6 18 Sudoeste 27 Sudoeste 0 -- -- 92
2019-04-07 16:00:00 6.9 15 Sudoeste 26 Sudoeste 0 -- -- 85
2019-04-07 15:00:00 6.8 17 Sudoeste 25 Sudoeste 0 -- -- 81
2019-04-07 14:00:00 6.9 12 Sudoeste 18 Oeste 0 -- -- 89
2019-04-07 13:00:00 5 4 Noroeste 9 Oeste 0 -- -- 88
2019-04-07 12:00:00 5.2 5 Sudoeste 8 Sudoeste 0 -- -- 87
2019-04-07 11:00:00 4.2 4 Oeste 8 Sudoeste 0 -- -- 91
2019-04-07 10:00:00 3.1 0 Calma 27 Sudeste 0 -- -- 87
2019-04-07 09:00:00 2.9 9 Sudeste 18 Sudeste 0 -- -- 81
2019-04-07 08:00:00 2.1 8 Sudoeste 27 Sudoeste 0 -- -- 92
2019-04-07 07:00:00 2.5 17 Sudoeste 39 Sudoeste 0 -- -- 91
2019-04-07 06:00:00 2.3 10 Sudoeste 21 Sudoeste 0.2 -- -- 96
2019-04-07 05:00:00 2.2 4 Sur 17 Sudoeste 0.4 -- -- 95
2019-04-07 04:00:00 2.2 6 Sur 18 Sudoeste 0.4 -- -- 94
2019-04-07 03:00:00 2.1 10 Sur 18 Sudoeste 0.4 -- -- 96
2019-04-07 02:00:00 2.2 6 Sudoeste 15 Sudoeste 1 -- -- 96
2019-04-07 01:00:00 2.4 6 Sudoeste 19 Sudoeste 0.8 -- -- 96
2019-04-07 00:00:00 2.8 10 Sudoeste 21 Sudoeste 1 -- -- 94
2019-04-06 23:00:00 3 5 Sur 10 Sudoeste 0.8 -- -- 92
2019-04-06 22:00:00 3 5 Sur 18 Sudoeste 0.2 -- -- 90
2019-04-06 21:00:00 3.5 8 Sudoeste 27 Sudoeste 0.4 -- -- 86
2019-04-06 20:00:00 3.8 13 Sur 38 Sudoeste 0 -- -- 81
2019-04-06 19:00:00 4.5 17 Sudoeste 44 Sudoeste 0.4 -- -- 82
2019-04-06 18:00:00 4.2 14 Sudoeste 33 Sudoeste 0.6 -- -- 83
2019-04-06 17:00:00 5.2 18 Sudoeste 31 Sudoeste 0 -- -- 78
2019-04-06 16:00:00 4.6 24 Sudoeste 39 Sudoeste 0 -- -- 84
2019-04-06 15:00:00 4.3 23 Sudoeste 43 Oeste 0 -- -- 89
2019-04-06 14:00:00 3.3 23 Sudoeste 36 Oeste 0.2 -- -- 95
2019-04-06 13:00:00 2.9 24 Sudoeste 35 Sudoeste 0.2 -- -- 95
2019-04-06 12:00:00 2.6 25 Sudoeste 38 Sudoeste 0 -- -- 96
2019-04-06 11:00:00 2.2 21 Sudoeste 36 Sudoeste 0.2 -- -- 98
2019-04-06 10:00:00 1.5 19 Sudoeste 34 Sudoeste 1.4 -- -- 99
2019-04-06 09:00:00 1.2 17 Sudoeste 30 Sudoeste 1.8 -- -- 99
2019-04-06 08:00:00 1.4 20 Sudoeste 28 Sudoeste 0.6 -- -- 98
2019-04-06 07:00:00 1.2 13 Sudoeste 23 Oeste 0.2 -- -- 98
2019-04-06 06:00:00 1.2 17 Sudoeste 28 Sudoeste 0 -- -- 98
2019-04-06 05:00:00 1.1 8 Sudoeste 21 Sudoeste 0 -- -- 97
2019-04-06 04:00:00 1.1 14 Sudoeste 23 Sudoeste 0 -- -- 97
2019-04-06 03:00:00 1.1 10 Sudoeste 22 Sudoeste 0.2 -- -- 96
2019-04-06 02:00:00 1.5 9 Sudoeste 15 Oeste 0 -- -- 94
2019-04-06 01:00:00 1.3 2 Norte 11 Oeste 0 -- -- 93
2019-04-06 00:00:00 1.3 3 Noroeste 14 Sudoeste 0.4 -- -- 95
2019-04-05 23:00:00 1.4 2 Sudeste 14 Sudoeste 0.4 -- -- 94
2019-04-05 22:00:00 1.3 12 Sudeste 41 Sudoeste 1.6 -- -- 94
2019-04-05 21:00:00 2.2 9 Sudoeste 34 Sudoeste 2 -- -- 93
2019-04-05 20:00:00 3.3 10 Sudoeste 21 Sudoeste 0.2 -- -- 88
2019-04-05 19:00:00 2.8 3 Sudeste 37 Sudoeste 1.2 -- -- 90
2019-04-05 18:00:00 5.6 15 Sudoeste 30 Sudoeste 0 -- -- 73
2019-04-05 17:00:00 5 18 Oeste 37 Sudoeste 0.2 -- -- 80
2019-04-05 16:00:00 3.7 9 Sudoeste 22 Oeste 0.6 -- -- 90
2019-04-05 15:00:00 1.8 22 Sudoeste 40 Sudoeste 0.6 -- -- 89
2019-04-05 14:00:00 4.1 17 Sudoeste 25 Sudoeste 0 -- -- 90
2019-04-05 13:00:00 3.6 13 Sudoeste 22 Sudoeste 0 -- -- 96
2019-04-05 12:00:00 2.3 10 Sudoeste 36 Oeste 0.6 -- -- 97
2019-04-05 11:00:00 1.8 18 Sudoeste 37 Sudoeste 1.6 -- -- 97
2019-04-05 10:00:00 2.9 16 Sudoeste 21 Sudoeste 1.4 -- -- 97
2019-04-05 09:00:00 2.6 11 Sudoeste 18 Sur 2.4 -- -- 97
2019-04-05 08:00:00 2.2 9 Sudoeste 18 Oeste 3.6 -- -- 97
2019-04-05 07:00:00 1.9 3 Sudoeste 9 Sur 1.8 -- -- 97
2019-04-05 06:00:00 0.9 0 Calma 9 Sudoeste 1.2 -- -- 97
2019-04-05 05:00:00 0.2 5 Sudoeste 12 Sudoeste 0 -- -- 96
2019-04-05 04:00:00 0.1 7 Sudoeste 13 Sudoeste 0 -- -- 96
2019-04-05 03:00:00 1 12 Sudoeste 18 Sudoeste 1.2 -- -- 94
2019-04-05 02:00:00 1.8 12 Oeste 23 Oeste 1.2 -- -- 95
2019-04-05 01:00:00 2.4 14 Sudoeste 22 Sudoeste 0.6 -- -- 95
2019-04-05 00:00:00 2.3 17 Sudoeste 40 Sudoeste 0.8 -- -- 94
2019-04-04 23:00:00 3.4 20 Sudoeste 36 Oeste 1 -- -- 87
2019-04-04 22:00:00 5.8 19 Oeste 39 Sudoeste 0 -- -- 69
2019-04-04 21:00:00 7.8 19 Sudoeste 34 Sudoeste 0 -- -- 40
2019-04-04 20:00:00 8.3 22 Sudoeste 37 Sudoeste 0 -- -- 36
2019-04-04 19:00:00 9.3 24 Sudoeste 42 Sudoeste 0 -- -- 40
2019-04-04 18:00:00 10.6 27 Sudoeste 40 Sudoeste 0 -- -- 34
2019-04-04 17:00:00 10.2 22 Sudoeste 36 Sudoeste 0 -- -- 35
2019-04-04 16:00:00 11.6 21 Sudoeste 33 Sudoeste 0 -- -- 36
2019-04-04 15:00:00 10.3 21 Sudoeste 35 Oeste 0 -- -- 40
2019-04-04 14:00:00 10.1 17 Oeste 28 Sudoeste 0 -- -- 39
2019-04-04 13:00:00 8.5 15 Sudoeste 24 Sudoeste 0 -- -- 34
2019-04-04 12:00:00 6.9 12 Sudoeste 21 Sudoeste 0 -- -- 36
2019-04-04 11:00:00 5.8 14 Sudoeste 30 Este 0 -- -- 41
2019-04-04 10:00:00 2.6 22 Este 33 Este 0 -- -- 53
2019-04-04 09:00:00 0.9 23 Este 32 Este 0 -- -- 62
2019-04-04 08:00:00 -0.1 20 Este 30 Nordeste 0 -- -- 69
2019-04-04 07:00:00 -0.4 23 Nordeste 29 Nordeste 0 -- -- 69
2019-04-04 06:00:00 0.3 15 Nordeste 33 Este 0 -- -- 67
2019-04-04 05:00:00 0.8 13 Nordeste 27 Este 0 -- -- 66
2019-04-04 04:00:00 1.9 18 Este 36 Este 0 -- -- 61
2019-04-04 03:00:00 2.3 23 Este 39 Este 0 -- -- 59
2019-04-04 02:00:00 2.9 20 Este 44 Sudeste 0 -- -- 56
2019-04-04 01:00:00 3.6 21 Este 41 Sudeste 0 -- -- 54
2019-04-04 00:00:00 4.3 23 Este 36 Este 0 -- -- 53
2019-04-03 23:00:00 5.2 23 Este 38 Este 0 -- -- 52
2019-04-03 22:00:00 5.9 23 Este 42 Este 0 -- -- 47
2019-04-03 21:00:00 6.8 17 Nordeste 49 Nordeste 0 -- -- 45
2019-04-03 20:00:00 8.9 27 Nordeste 46 Nordeste 0 -- -- 39
2019-04-03 19:00:00 10.2 27 Nordeste 46 Nordeste 0 -- -- 38
2019-04-03 18:00:00 11.6 18 Nordeste 41 Norte 0 -- -- 37
2019-04-03 17:00:00 12.5 19 Norte 40 Norte 0 -- -- 35
2019-04-03 16:00:00 11.9 29 Nordeste 52 Este 0 -- -- 40
2019-04-03 15:00:00 11.6 24 Nordeste 44 Nordeste 0 -- -- 41
2019-04-03 14:00:00 10.5 23 Nordeste 42 Nordeste 0 -- -- 50
2019-04-03 13:00:00 9.4 26 Nordeste 43 Este 0 -- -- 59
2019-04-03 12:00:00 8.2 23 Nordeste 41 Este 0 -- -- 64
2019-04-03 11:00:00 6.9 22 Nordeste 38 Nordeste 0 -- -- 74
2019-04-03 10:00:00 5.1 19 Nordeste 36 Este 0 -- -- 82
2019-04-03 09:00:00 5.7 24 Este 37 Este 0 -- -- 81
2019-04-03 08:00:00 5.8 17 Este 37 Nordeste 0 -- -- 76
2019-04-03 07:00:00 6.4 20 Este 36 Nordeste 0 -- -- 73
2019-04-03 06:00:00 6.4 22 Este 44 Nordeste 0 -- -- 72
2019-04-03 05:00:00 7.6 27 Nordeste 35 Nordeste 0 -- -- 67
2019-04-03 04:00:00 8 24 Este 33 Nordeste 0 -- -- 66
2019-04-03 03:00:00 8.4 20 Este 30 Este 0 -- -- 65
2019-04-03 02:00:00 8.8 16 Nordeste 24 Nordeste 0 -- -- 63
2019-04-03 01:00:00 8.5 14 Nordeste 21 Nordeste 0 -- -- 64
2019-04-03 00:00:00 8.6 5 Este 12 Sudeste 0 -- -- 68
2019-04-02 23:00:00 10.3 4 Este 13 Sudeste 0 -- -- 66
2019-04-02 22:00:00 11.6 9 Sudeste 25 Sudoeste 0 -- -- 64
2019-04-02 21:00:00 12.8 12 Sur 23 Sudoeste 0 -- -- 55
2019-04-02 20:00:00 14.2 13 Sudoeste 33 Sudoeste 0 -- -- 50
2019-04-02 19:00:00 15.1 21 Sudoeste 33 Sudoeste 0 -- -- 48
2019-04-02 18:00:00 14.9 21 Sudoeste 36 Sudoeste 0 -- -- 49
2019-04-02 17:00:00 16 17 Sudoeste 32 Sudoeste 0 -- -- 47
2019-04-02 16:00:00 15.5 16 Sudoeste 32 Sudoeste 0 -- -- 45
2019-04-02 15:00:00 14 3 Sudoeste 14 Sudoeste 0 -- -- 52
2019-04-02 14:00:00 13.3 3 Sur 18 Sudoeste 0 -- -- 61
2019-04-02 13:00:00 14.1 8 Sudoeste 19 Sudoeste 0 -- -- 53
2019-04-02 12:00:00 14.1 8 Nordeste 24 Nordeste 0 -- -- 50
2019-04-02 11:00:00 10.8 19 Este 32 Nordeste 0 -- -- 68
2019-04-02 10:00:00 8.4 20 Este 30 Nordeste 0 -- -- 75
2019-04-02 09:00:00 7.9 12 Este 30 Nordeste 0 -- -- 75
2019-04-02 08:00:00 8.4 19 Este 27 Este 0 -- -- 73
2019-04-02 07:00:00 8.8 15 Este 25 Nordeste 0 -- -- 72
2019-04-02 06:00:00 7.5 8 Este 11 Nordeste 0 -- -- 81
2019-04-02 05:00:00 7.1 3 Este 19 Nordeste 0 -- -- 84
2019-04-02 04:00:00 8.7 7 Este 21 Nordeste 0 -- -- 75
2019-04-02 03:00:00 8.9 17 Nordeste 27 Este 0 -- -- 74
2019-04-02 02:00:00 8.7 15 Este 25 Este 0 -- -- 75
2019-04-02 01:00:00 8.6 12 Nordeste 26 Este 0 -- -- 77
2019-04-02 00:00:00 8.1 8 Sudeste 10 Sudeste 0 -- -- 84
2019-04-01 23:00:00 8.2 4 Este 8 Sudeste 0 -- -- 85
2019-04-01 22:00:00 8.4 4 Nordeste 10 Este 0 -- -- 82
2019-04-01 21:00:00 8.6 4 Nordeste 13 Este 1 -- -- 84
2019-04-01 20:00:00 9.6 12 Este 18 Este 0.2 -- -- 76
2019-04-01 19:00:00 10.5 5 Este 15 Este 0.8 -- -- 81
2019-04-01 18:00:00 11.9 6 Sudeste 19 Oeste 0 -- -- 65
2019-04-01 17:00:00 14.1 13 Sudoeste 22 Sudoeste 0 -- -- 57
2019-04-01 16:00:00 13.8 15 Sudoeste 27 Sudoeste 0 -- -- 58
2019-04-01 15:00:00 11.9 10 Oeste 22 Oeste 0 -- -- 63
2019-04-01 14:00:00 12.2 12 Oeste 29 Sudoeste 0 -- -- 66
2019-04-01 13:00:00 12.6 21 Sudoeste 32 Sudoeste 0 -- -- 63
2019-04-01 12:00:00 11.3 17 Sudoeste 23 Sudoeste 0 -- -- 67
2019-04-01 11:00:00 11.4 14 Oeste 21 Sudoeste 0 -- -- 64
2019-04-01 10:00:00 8.4 13 Nordeste 23 Nordeste 0 -- -- 74
2019-04-01 09:00:00 7.8 12 Nordeste 23 Nordeste 0 -- -- 75
2019-04-01 08:00:00 7.5 20 Este 26 Nordeste 0 -- -- 75
2019-04-01 07:00:00 6.5 13 Nordeste 21 Nordeste 0 -- -- 79
2019-04-01 06:00:00 5.6 6 Este 13 Sudeste 0 -- -- 84
2019-04-01 05:00:00 6.2 4 Este 12 Este 0 -- -- 82
2019-04-01 04:00:00 6.4 7 Este 11 Sudeste 0 -- -- 81
2019-04-01 03:00:00 7.8 4 Sudeste 10 Sudeste 0 -- -- 79
2019-04-01 02:00:00 6.7 6 Este 12 Sudeste 0 -- -- 82
2019-04-01 01:00:00 6.5 8 Sudeste 12 Este 0 -- -- 81
2019-04-01 00:00:00 6.9 6 Este 12 Sudeste 0 -- -- 80
2019-03-31 23:00:00 7.4 8 Sudeste 12 Sudeste 0 -- -- 78
2019-03-31 22:00:00 8.8 7 Sudeste 14 Nordeste 0 -- -- 71
2019-03-31 21:00:00 10.1 12 Nordeste 17 Nordeste 0 -- -- 59
2019-03-31 20:00:00 11.9 9 Nordeste 26 Nordeste 0 -- -- 55
2019-03-31 19:00:00 13.4 7 Oeste 19 Oeste 0 -- -- 52
2019-03-31 18:00:00 14 13 Sudoeste 20 Sudoeste 0 -- -- 54
2019-03-31 17:00:00 13.7 8 Nordeste 22 Nordeste 0 -- -- 46
2019-03-31 16:00:00 12.9 16 Nordeste 25 Nordeste 0 -- -- 50
2019-03-31 15:00:00 11.1 16 Este 33 Este 0 -- -- 59
2019-03-31 14:00:00 13.3 12 Nordeste 18 Nordeste 0 -- -- 48
2019-03-31 13:00:00 12.6 4 Sudoeste 13 Sudoeste 0 -- -- 48
2019-03-31 12:00:00 12.2 10 Sudoeste 17 Sudoeste 0 -- -- 52
2019-03-31 11:00:00 10.8 5 Oeste 17 Nordeste 0 -- -- 55
2019-03-31 10:00:00 8.8 8 Nordeste 43 Nordeste 0 -- -- 59
2019-03-31 09:00:00 7.4 28 Nordeste 37 Nordeste 0 -- -- 61
2019-03-31 08:00:00 8.2 21 Nordeste 32 Nordeste 0 -- -- 55
2019-03-31 07:00:00 9.5 20 Este 30 Este 0 -- -- 50
2019-03-31 06:00:00 9.9 14 Este 30 Nordeste 0 -- -- 49
2019-03-31 05:00:00 8.6 23 Nordeste 36 Nordeste 0 -- -- 53
2019-03-31 03:00:00 11 14 Nordeste 30 Nordeste 0 -- -- 45
2019-03-31 01:00:00 9.4 22 Nordeste 31 Nordeste 0 -- -- 51
2019-03-31 00:00:00 10.2 17 Nordeste 24 Nordeste 0 -- -- 48
2019-03-30 23:00:00 9.9 15 Nordeste 23 Nordeste 0 -- -- 52
2019-03-30 22:00:00 10.8 17 Este 23 Este 0 -- -- 51
2019-03-30 21:00:00 10.4 12 Nordeste 18 Nordeste 0 -- -- 46
2019-03-30 20:00:00 12.1 5 Sudeste 13 Este 0 -- -- 45
2019-03-30 19:00:00 13.7 3 Nordeste 22 Este 0 -- -- 46
2019-03-30 18:00:00 14.5 13 Nordeste 23 Oeste 0 -- -- 42
2019-03-30 17:00:00 17.7 17 Sudoeste 27 Oeste 0 -- -- 36
2019-03-30 16:00:00 18.4 18 Oeste 26 Sudoeste 0 -- -- 33
2019-03-30 15:00:00 17 18 Sudoeste 31 Oeste 0 -- -- 33
2019-03-30 14:00:00 16.7 17 Sudoeste 28 Sudoeste 0 -- -- 34
2019-03-30 13:00:00 16 18 Sudoeste 26 Sudoeste 0 -- -- 33
2019-03-30 12:00:00 14.4 16 Sudoeste 24 Sudoeste 0 -- -- 34
2019-03-30 11:00:00 13.9 8 Sudoeste 22 Nordeste 0 -- -- 37
2019-03-30 10:00:00 10.8 15 Nordeste 44 Nordeste 0 -- -- 45
2019-03-30 09:00:00 7 25 Nordeste 37 Nordeste 0 -- -- 56
2019-03-30 08:00:00 6.1 23 Nordeste 40 Nordeste 0 -- -- 56
2019-03-30 07:00:00 5.2 28 Nordeste 43 Nordeste 0 -- -- 58
2019-03-30 06:00:00 6.2 28 Nordeste 40 Nordeste 0 -- -- 53
2019-03-30 05:00:00 7 26 Nordeste 39 Nordeste 0 -- -- 46
2019-03-30 04:00:00 7.1 21 Nordeste 28 Nordeste 0 -- -- 45
2019-03-30 03:00:00 6.7 9 Este 25 Nordeste 0 -- -- 47
2019-03-30 02:00:00 8.2 14 Nordeste 26 Nordeste 0 -- -- 42
2019-03-30 01:00:00 7.8 14 Nordeste 20 Nordeste 0 -- -- 44
2019-03-30 00:00:00 7.6 10 Sudeste 14 Sudeste 0 -- -- 46
2019-03-29 23:00:00 7.9 10 Sudeste 14 Este 0 -- -- 45
2019-03-29 22:00:00 8.3 8 Este 14 Sudeste 0 -- -- 44
2019-03-29 21:00:00 9.4 11 Sudeste 14 Sudeste 0 -- -- 41
2019-03-29 20:00:00 12 7 Oeste 22 Oeste 0 -- -- 35
2019-03-29 19:00:00 14.9 13 Sudoeste 27 Oeste 0 -- -- 30
2019-03-29 18:00:00 15.9 12 Sudoeste 30 Sudoeste 0 -- -- 30
2019-03-29 17:00:00 16.5 9 Sur 32 Sudoeste 0 -- -- 31
2019-03-29 16:00:00 16.7 15 Sudoeste 32 Sudoeste 0 -- -- 30
2019-03-29 15:00:00 17.3 17 Oeste 37 Sudoeste 0 -- -- 30
2019-03-29 14:00:00 16.6 19 Oeste 31 Sudoeste 0 -- -- 31
2019-03-29 13:00:00 15.5 16 Sudoeste 32 Sudoeste 0 -- -- 30
2019-03-29 12:00:00 15.5 13 Sudoeste 22 Sudoeste 0 -- -- 30
2019-03-29 11:00:00 13.4 12 Sudoeste 17 Sudoeste 0 -- -- 31
2019-03-29 10:00:00 11.9 6 Sudoeste 26 Nordeste 0 -- -- 31
2019-03-29 09:00:00 9.3 20 Este 30 Nordeste 0 -- -- 34
2019-03-29 08:00:00 7.1 17 Nordeste 25 Nordeste 0 -- -- 40
2019-03-29 07:00:00 7.1 18 Nordeste 31 Nordeste 0 -- -- 38
2019-03-29 06:00:00 8.4 16 Este 30 Nordeste 0 -- -- 36
2019-03-29 05:00:00 9.5 14 Este 33 Este 0 -- -- 34
2019-03-29 04:00:00 7.7 15 Nordeste 28 Nordeste 0 -- -- 37
2019-03-29 03:00:00 7.9 6 Este 17 Norte 0 -- -- 38
2019-03-29 02:00:00 9.8 12 Nordeste 21 Este 0 -- -- 35
2019-03-29 01:00:00 8.5 13 Sudeste 21 Nordeste 0 -- -- 41
2019-03-29 00:00:00 8.4 10 Este 21 Nordeste 0 -- -- 42
2019-03-28 23:00:00 8.8 7 Este 21 Nordeste 0 -- -- 42
2019-03-28 22:00:00 9 9 Este 13 Sudeste 0 -- -- 41
2019-03-28 21:00:00 9.7 10 Sudeste 15 Sudeste 0 -- -- 40
2019-03-28 20:00:00 11.4 9 Sudeste 14 Sudoeste 0 -- -- 38
2019-03-28 19:00:00 16.1 10 Oeste 26 Oeste 0 -- -- 29
2019-03-28 18:00:00 17.9 12 Sudoeste 27 Oeste 0 -- -- 28
2019-03-28 17:00:00 18.3 14 Sudoeste 25 Oeste 0 -- -- 27
2019-03-28 16:00:00 17.9 16 Sudoeste 26 Oeste 0 -- -- 29
2019-03-28 15:00:00 17 12 Sudoeste 31 Sudoeste 0 -- -- 30
2019-03-28 14:00:00 16.2 12 Oeste 30 Sudoeste 0 -- -- 29
2019-03-28 13:00:00 16 15 Oeste 26 Oeste 0 -- -- 31
2019-03-28 12:00:00 14.9 12 Sudoeste 18 Sudoeste 0 -- -- 32
2019-03-28 11:00:00 13.3 10 Sudoeste 17 Nordeste 0 -- -- 33
2019-03-28 10:00:00 11.4 14 Nordeste 28 Nordeste 0 -- -- 35
2019-03-28 09:00:00 8.3 16 Nordeste 36 Nordeste 0 -- -- 39
2019-03-28 08:00:00 6.7 26 Nordeste 32 Nordeste 0 -- -- 41
2019-03-28 07:00:00 7.5 19 Nordeste 31 Nordeste 0 -- -- 40
2019-03-28 06:00:00 7.1 15 Nordeste 23 Nordeste 0 -- -- 42
2019-03-28 05:00:00 8 16 Nordeste 22 Nordeste 0 -- -- 38
2019-03-28 04:00:00 7 10 Este 16 Sudeste 0 -- -- 44
2019-03-28 03:00:00 8 12 Sudeste 16 Sudeste 0 -- -- 40
2019-03-28 02:00:00 7.6 9 Sudeste 14 Sudeste 0 -- -- 38
2019-03-28 01:00:00 9.7 3 Sudoeste 24 Este 0 -- -- 33
2019-03-28 00:00:00 11.2 17 Este 31 Este 0 -- -- 28
2019-03-27 23:00:00 11.2 15 Este 24 Este 0 -- -- 28
2019-03-27 22:00:00 9.9 8 Este 22 Nordeste 0 -- -- 33
2019-03-27 21:00:00 11.8 10 Este 24 Este 0 -- -- 27
2019-03-27 20:00:00 12.6 10 Este 21 Sudeste 0 -- -- 26
2019-03-27 19:00:00 15.7 7 Sudoeste 19 Sudoeste 0 -- -- 36
2019-03-27 18:00:00 17.2 10 Norte 20 Este 0 -- -- 32
2019-03-27 17:00:00 17.5 15 Sudoeste 28 Oeste 0 -- -- 33
2019-03-27 16:00:00 17.3 19 Sudoeste 27 Oeste 0 -- -- 33
2019-03-27 15:00:00 16.9 15 Sudoeste 28 Sudoeste 0 -- -- 35
2019-03-27 14:00:00 16.3 16 Sudoeste 27 Sudoeste 0 -- -- 34
2019-03-27 13:00:00 15.4 13 Sudoeste 23 Oeste 0 -- -- 33
2019-03-27 12:00:00 14 8 Sudoeste 13 Sudoeste 0 -- -- 33
2019-03-27 11:00:00 12.1 5 Oeste 9 Sudoeste 0 -- -- 38
2019-03-27 10:00:00 9.5 4 Sudoeste 10 Sudeste 0 -- -- 42
2019-03-27 09:00:00 4.8 7 Sudeste 11 Este 0 -- -- 52
2019-03-27 08:00:00 5.3 4 Sur 25 Nordeste 0 -- -- 47
2019-03-27 07:00:00 5.7 20 Nordeste 31 Nordeste 0 -- -- 42
2019-03-27 06:00:00 5.8 24 Nordeste 32 Nordeste 0 -- -- 41
2019-03-27 05:00:00 7.9 17 Nordeste 27 Nordeste 0 -- -- 35
2019-03-27 04:00:00 7.8 13 Nordeste 24 Este 0 -- -- 36
2019-03-27 03:00:00 9.6 14 Este 33 Este 0 -- -- 30
2019-03-27 02:00:00 10.3 20 Este 36 Este 0 -- -- 29
2019-03-27 01:00:00 11.5 20 Este 35 Este 0 -- -- 28
2019-03-27 00:00:00 11.4 22 Este 38 Este 0 -- -- 32
2019-03-26 23:00:00 12.6 22 Este 31 Este 0 -- -- 32
2019-03-26 22:00:00 12.8 19 Este 26 Este 0 -- -- 33
2019-03-26 21:00:00 13.7 20 Este 29 Este 0 -- -- 31
2019-03-26 20:00:00 14.8 17 Este 25 Este 0 -- -- 28
2019-03-26 19:00:00 18.6 10 Sudoeste 26 Oeste 0 -- -- 29
2019-03-26 18:00:00 20.2 11 Oeste 26 Sudoeste 0 -- -- 27
2019-03-26 17:00:00 20.9 5 Noroeste 19 Norte 0 -- -- 26
2019-03-26 16:00:00 19.8 13 Norte 29 Nordeste 0 -- -- 27
2019-03-26 15:00:00 19.2 16 Nordeste 31 Nordeste 0 -- -- 29
2019-03-26 14:00:00 19.3 10 Nordeste 23 Sudoeste 0 -- -- 29
2019-03-26 13:00:00 17.5 18 Sudoeste 26 Sudoeste 0 -- -- 30
2019-03-26 12:00:00 16.1 15 Este 37 Este 0 -- -- 31
2019-03-26 11:00:00 13.4 25 Este 44 Este 0 -- -- 33
2019-03-26 10:00:00 11.3 26 Este 50 Este 0 -- -- 34
2019-03-26 09:00:00 9.4 27 Este 43 Este 0 -- -- 37
2019-03-26 08:00:00 8.4 23 Este 45 Nordeste 0 -- -- 44
2019-03-26 07:00:00 9.3 23 Este 40 Este 0 -- -- 40
2019-03-26 06:00:00 9.5 22 Este 46 Nordeste 0 -- -- 42
2019-03-26 05:00:00 6.9 24 Nordeste 37 Nordeste 0 -- -- 52
2019-03-26 04:00:00 9.7 22 Este 39 Este 0 -- -- 44
2019-03-26 03:00:00 9.4 22 Este 40 Este 0 -- -- 46
2019-03-26 02:00:00 9.6 28 Este 45 Este 0 -- -- 45
2019-03-26 01:00:00 10.3 19 Este 40 Nordeste 0 -- -- 42
2019-03-26 00:00:00 10.5 22 Este 42 Nordeste 0 -- -- 41
2019-03-25 23:00:00 10.8 27 Este 40 Este 0 -- -- 41
2019-03-25 22:00:00 10.8 24 Este 33 Este 0 -- -- 43
2019-03-25 21:00:00 11.5 20 Este 40 Nordeste 0 -- -- 42
2019-03-25 20:00:00 12.8 18 Este 35 Este 0 -- -- 36
2019-03-25 19:00:00 15.5 14 Nordeste 40 Nordeste 0 -- -- 31
2019-03-25 18:00:00 16.9 22 Nordeste 47 Nordeste 0 -- -- 32
2019-03-25 17:00:00 17.7 17 Nordeste 44 Nordeste 0 -- -- 33
2019-03-25 16:00:00 18.1 15 Nordeste 39 Noroeste 0 -- -- 32
2019-03-25 15:00:00 18.1 17 Nordeste 39 Nordeste 0 -- -- 32
2019-03-25 14:00:00 18 13 Nordeste 39 Este 0 -- -- 33
2019-03-25 13:00:00 18.1 12 Nordeste 30 Este 0 -- -- 31
2019-03-25 12:00:00 17.1 13 Nordeste 24 Nordeste 0 -- -- 29
2019-03-25 11:00:00 15.9 14 Nordeste 24 Nordeste 0 -- -- 34
2019-03-25 10:00:00 13.1 17 Este 28 Este 0 -- -- 41
2019-03-25 09:00:00 10 21 Nordeste 41 Nordeste 0 -- -- 49
2019-03-25 08:00:00 9.2 25 Nordeste 34 Nordeste 0 -- -- 48
2019-03-25 07:00:00 9.1 21 Nordeste 28 Nordeste 0 -- -- 48
2019-03-25 06:00:00 9.3 20 Nordeste 31 Nordeste 0 -- -- 47
2019-03-25 05:00:00 8.8 22 Nordeste 35 Nordeste 0 -- -- 48
2019-03-25 04:00:00 9.7 20 Nordeste 28 Nordeste 0 -- -- 45
2019-03-25 03:00:00 11.5 14 Este 28 Nordeste 0 -- -- 41
2019-03-25 02:00:00 10.7 23 Nordeste 31 Este 0 -- -- 43
2019-03-25 01:00:00 12.4 18 Este 25 Este 0 -- -- 39
2019-03-25 00:00:00 12.8 20 Este 26 Este 0 -- -- 37
2019-03-24 23:00:00 12.8 17 Este 24 Este 0 -- -- 37
2019-03-24 22:00:00 13.6 16 Este 21 Este 0 -- -- 36
2019-03-24 21:00:00 13.4 13 Este 21 Nordeste 0 -- -- 37
2019-03-24 20:00:00 13.4 12 Nordeste 16 Nordeste 0 -- -- 38
2019-03-24 19:00:00 16.8 7 Nordeste 17 Este 0 -- -- 33
2019-03-24 18:00:00 17.7 6 Nordeste 25 Nordeste 0 -- -- 30
2019-03-24 17:00:00 18.2 9 Nordeste 31 Nordeste 0 -- -- 29
2019-03-24 16:00:00 18.2 13 Este 32 Sudeste 0 -- -- 28
2019-03-24 15:00:00 17.3 11 Este 32 Este 0 -- -- 31
2019-03-24 14:00:00 17.3 12 Este 37 Este 0 -- -- 32
2019-03-24 13:00:00 16 14 Nordeste 45 Nordeste 0 -- -- 35
2019-03-24 12:00:00 16.4 11 Norte 33 Noroeste 0 -- -- 37
2019-03-24 11:00:00 14.3 21 Este 37 Este 0 -- -- 39
2019-03-24 10:00:00 12 19 Este 33 Este 0 -- -- 46
2019-03-24 09:00:00 9.4 17 Este 30 Este 0 -- -- 52
2019-03-24 08:00:00 8.9 16 Este 29 Este 0 -- -- 53
2019-03-24 07:00:00 8.9 24 Este 38 Este 0 -- -- 54
2019-03-24 06:00:00 9.2 22 Este 35 Este 0 -- -- 54
2019-03-24 05:00:00 9.9 21 Este 44 Este 0 -- -- 50
2019-03-24 04:00:00 10.2 21 Este 35 Este 0 -- -- 50
2019-03-24 03:00:00 11 14 Nordeste 28 Nordeste 0 -- -- 47
2019-03-24 02:00:00 11.2 18 Este 28 Este 0 -- -- 50
2019-03-24 01:00:00 11.2 14 Este 20 Nordeste 0 -- -- 51
2019-03-24 00:00:00 11.1 10 Este 17 Este 0 -- -- 50
2019-03-23 23:00:00 11.3 8 Este 16 Este 0 -- -- 49
2019-03-23 22:00:00 12.3 12 Este 23 Nordeste 0 -- -- 45
2019-03-23 21:00:00 12.9 8 Este 23 Este 0 -- -- 42
2019-03-23 20:00:00 14.4 9 Este 22 Este 0 -- -- 38
2019-03-23 19:00:00 15.4 11 Este 27 Este 0 -- -- 36
2019-03-23 18:00:00 17 7 Este 32 Nordeste 0 -- -- 33
2019-03-23 17:00:00 17.7 12 Este 28 Este 0 -- -- 32
2019-03-23 16:00:00 17.8 13 Nordeste 24 Nordeste 0 -- -- 33
2019-03-23 15:00:00 16.9 12 Nordeste 27 Este 0 -- -- 33
2019-03-23 14:00:00 16.4 8 Norte 26 Nordeste 0 -- -- 33
2019-03-23 13:00:00 16.8 14 Nordeste 31 Nordeste 0 -- -- 30
2019-03-23 12:00:00 15.8 15 Nordeste 27 Nordeste 0 -- -- 35
2019-03-23 11:00:00 14.2 11 Este 22 Este 0 -- -- 38
2019-03-23 10:00:00 12.1 11 Este 26 Nordeste 0 -- -- 43
2019-03-23 09:00:00 7.8 10 Este 16 Este 0 -- -- 53
2019-03-23 08:00:00 7.1 9 Sudeste 18 Nordeste 0 -- -- 55
2019-03-23 07:00:00 8 17 Nordeste 24 Nordeste 0 -- -- 53
2019-03-23 06:00:00 7.1 12 Nordeste 23 Nordeste 0 -- -- 55
2019-03-23 05:00:00 8 7 Este 22 Nordeste 0 -- -- 52
2019-03-23 04:00:00 9.1 14 Este 25 Nordeste 0 -- -- 48
2019-03-23 03:00:00 10.3 15 Este 24 Nordeste 0 -- -- 44
2019-03-23 02:00:00 8.9 14 Nordeste 24 Nordeste 0 -- -- 46
2019-03-23 01:00:00 10.2 15 Este 28 Nordeste 0 -- -- 43
2019-03-23 00:00:00 10.3 13 Este 19 Este 0 -- -- 42
2019-03-22 23:00:00 10.2 15 Este 21 Nordeste 0 -- -- 44
2019-03-22 22:00:00 7.9 4 Este 14 Sudeste 0 -- -- 56
2019-03-22 21:00:00 8.3 9 Este 13 Sudeste 0 -- -- 56
2019-03-22 20:00:00 10 9 Sudeste 13 Oeste 0 -- -- 53
2019-03-22 19:00:00 14.4 10 Oeste 24 Sudoeste 0 -- -- 41
2019-03-22 18:00:00 15.7 15 Sudoeste 24 Sudoeste 0 -- -- 38
2019-03-22 17:00:00 16.2 13 Sudoeste 25 Sudoeste 0 -- -- 37
2019-03-22 16:00:00 15.7 16 Sudoeste 36 Sudoeste 0 -- -- 36
2019-03-22 15:00:00 15.4 23 Sudoeste 32 Sudoeste 0 -- -- 35
2019-03-22 14:00:00 15.4 18 Sudoeste 26 Sudoeste 0 -- -- 34
2019-03-22 13:00:00 14.3 10 Nordeste 27 Este 0 -- -- 32
2019-03-22 12:00:00 12.6 17 Nordeste 25 Nordeste 0 -- -- 34
2019-03-22 11:00:00 11.4 17 Nordeste 27 Nordeste 0 -- -- 35
2019-03-22 10:00:00 8.3 18 Este 31 Este 0 -- -- 43
2019-03-22 09:00:00 5.8 15 Este 32 Nordeste 0 -- -- 47
2019-03-22 08:00:00 5.4 17 Este 31 Nordeste 0 -- -- 49
2019-03-22 07:00:00 5.2 17 Nordeste 32 Nordeste 0 -- -- 48
2019-03-22 06:00:00 5.9 10 Este 29 Nordeste 0 -- -- 47
2019-03-22 05:00:00 5 9 Este 19 Este 0 -- -- 50
2019-03-22 04:00:00 4.9 10 Nordeste 15 Nordeste 0 -- -- 56
2019-03-22 03:00:00 4.5 5 Este 12 Sudeste 0 -- -- 58
2019-03-22 02:00:00 6 12 Este 22 Nordeste 0 -- -- 54
2019-03-22 01:00:00 6.1 12 Nordeste 21 Nordeste 0 -- -- 54
2019-03-22 00:00:00 5.6 8 Este 15 Sudeste 0 -- -- 59
2019-03-21 23:00:00 6.1 6 Este 13 Sudeste 0 -- -- 56
2019-03-21 22:00:00 7.8 10 Sudeste 13 Sudeste 0 -- -- 51
2019-03-21 21:00:00 9.1 5 Sudeste 8 Sudeste 0 -- -- 51
2019-03-21 20:00:00 9.7 4 Sur 20 Oeste 0 -- -- 50
2019-03-21 19:00:00 11.2 10 Sudoeste 31 Oeste 0 -- -- 46
2019-03-21 18:00:00 13 15 Sudoeste 22 Sudoeste 0 -- -- 41
2019-03-21 17:00:00 13 15 Oeste 26 Sudoeste 0 -- -- 40
2019-03-21 16:00:00 14.1 18 Sudoeste 32 Sudoeste 0 -- -- 39
2019-03-21 15:00:00 14.2 16 Sudoeste 28 Oeste 0 -- -- 39
2019-03-21 14:00:00 13.3 16 Oeste 27 Sudoeste 0 -- -- 38
2019-03-21 13:00:00 12.1 15 Sudoeste 28 Oeste 0 -- -- 40
2019-03-21 12:00:00 10.9 18 Sudoeste 28 Sudoeste 0 -- -- 42
2019-03-21 11:00:00 9.8 14 Sudoeste 25 Nordeste 0 -- -- 43
2019-03-21 10:00:00 7.5 22 Este 36 Nordeste 0 -- -- 46
2019-03-21 09:00:00 4.2 25 Nordeste 39 Nordeste 0 -- -- 55
2019-03-21 08:00:00 4.5 29 Nordeste 39 Nordeste 0 -- -- 51
2019-03-21 07:00:00 4.9 24 Nordeste 40 Nordeste 0 -- -- 50
2019-03-21 06:00:00 5.8 21 Este 36 Nordeste 0 -- -- 49
2019-03-21 05:00:00 5.4 16 Este 35 Nordeste 0 -- -- 52
2019-03-21 04:00:00 6.2 21 Nordeste 35 Nordeste 0 -- -- 49
2019-03-21 03:00:00 4.6 17 Nordeste 27 Nordeste 0 -- -- 55
2019-03-21 02:00:00 5.9 9 Nordeste 23 Este 0 -- -- 51
2019-03-21 01:00:00 6.9 16 Este 23 Este 0 -- -- 48
2019-03-21 00:00:00 6.1 13 Nordeste 23 Este 0 -- -- 51